Industry, Kansas
Current Conditions -  °F | °C
As of 6:58 PM on Friday 19 Dec 2014 (Local Time) from KFRI Reporting Station
Overcast Overcast  
Wind Chill: 30°   Ceiling: 1600
Heat Index: 35°   Visibility: 10mi
Dew Point: 32°   Wind: 5mph
Humidity: 90%   Direction: 170°S
Pressure: 30.18"   Gusts: NA
Location:  39.0421°N, 97.1702°W
Report Text: KFRI 200058Z AUTO 17004KT 10SM OVC016 01/00 A3018 RMK AO2 SLP229 P0001 T00141001
Loading
Personal Weather Stations






























Interactive Weather Map New forecast layout! Learn more

10-Day Weather Forecast

Advertisements
Track Severe Weather on mobile